Aviation Digital Data Service (ADDS)

Output produced by METARs form (1243 UTC 24 October 2014)
found at http://aviationweather.gov/adds/metars/
 
KACK 241125Z 2412/2512 34019G28KT P6SM OVC015 
     FM241700 33016KT P6SM OVC015 
     FM250600 31011KT P6SM BKN025 
     FM250700 31011KT P6SM BKN040 
     FM250900 31011G19KT P6SM SCT100